Time;durP1;ratioP1;P1;durP2;ratioP2;P2;SDS_P1;SDS_P2;PMS_P1;PMS_P2;Temp;Humidity;BMP_temperature;BMP_pressure;BME280_temperature;BME280_humidity;BME280_pressure;Samples;Min_cycle;Max_cycle;Signal;HPM_P1;HPM_P2
2023/04/26 10:13:02;;;;;;;3.30;0.90;;;;;;;10.45;48.26;100631.86;109009;1265;59484;-87
2023/04/26 10:48:41;;;;;;;5.40;1.10;;;;;;;10.77;47.92;100643.09;109114;1264;72463;-87
2023/04/26 11:50:58;;;;;;;3.00;1.00;;;;;;;10.76;47.36;100653.63;108969;1265;73698;-87
2023/04/26 12:24:21;;;;;;;2.70;1.20;;;;;;;11.71;46.64;100663.94;108986;1265;72349;-87
2023/04/26 12:36:27;;;;;;;4.00;1.00;;;;;;;11.59;46.41;100663.31;108976;1265;67680;-87
2023/04/26 12:40:18;;;;;;;4.00;0.80;;;;;;;11.51;46.23;100670.36;108662;1271;70005;-87
2023/04/26 13:17:25;;;;;;;2.40;1.30;;;;;;;11.30;46.11;100677.88;108987;1265;67013;-88
2023/04/26 13:21:12;;;;;;;2.80;0.80;;;;;;;11.30;46.00;100687.02;108978;1265;71405;-87
2023/04/26 13:24:58;;;;;;;5.20;1.00;;;;;;;11.11;45.74;100693.21;108493;1274;58869;-88
2023/04/26 13:28:47;;;;;;;3.50;1.10;;;;;;;10.90;45.84;100707.70;108459;1274;59267;-91
2023/04/26 13:32:33;;;;;;;4.80;1.20;;;;;;;10.64;45.92;100716.39;108433;1274;73277;-87
2023/04/26 13:39:23;;;;;;;2.20;1.00;;;;;;;10.46;46.32;100708.54;108958;1265;70158;-87
2023/04/26 13:43:13;;;;;;;2.80;1.20;;;;;;;10.56;46.37;100706.52;108991;1265;58985;-87
2023/04/26 13:47:01;;;;;;;5.80;1.10;;;;;;;10.74;46.32;100701.94;108958;1265;59791;-87
2023/04/26 14:13:15;;;;;;;6.80;1.30;;;;;;;11.03;46.06;100699.37;108929;1265;74588;-88
2023/04/26 14:17:02;;;;;;;5.50;1.00;;;;;;;11.00;45.95;100695.46;108862;1266;67112;-88
2023/04/26 14:20:49;;;;;;;3.50;1.00;;;;;;;10.98;45.87;100689.11;108240;1274;71171;-85
2023/04/26 15:26:17;;;;;;;6.10;1.00;;;;;;;11.50;44.47;100719.41;108956;1266;74899;-86
2023/04/26 15:30:03;;;;;;;2.40;0.70;;;;;;;11.58;44.38;100726.00;108821;1272;67432;-86
2023/04/26 15:33:50;;;;;;;2.40;0.70;;;;;;;11.60;44.37;100725.80;108312;1276;72355;-86
2023/04/26 15:37:40;;;;;;;1.60;0.80;;;;;;;11.51;44.14;100732.17;108310;1276;58832;-86
2023/04/26 15:41:27;;;;;;;2.50;0.90;;;;;;;11.44;44.25;100736.98;108371;1277;59548;-86
2023/04/26 15:45:16;;;;;;;4.80;0.80;;;;;;;11.34;44.07;100740.61;108437;1276;74426;-86
2023/04/26 15:49:03;;;;;;;4.10;0.80;;;;;;;11.23;44.33;100744.41;107814;1282;67139;-86
2023/04/26 15:52:50;;;;;;;3.40;0.70;;;;;;;11.15;44.10;100742.48;107767;1282;71055;-86
2023/04/26 15:56:36;;;;;;;3.00;0.80;;;;;;;11.06;44.11;100755.05;107679;1282;59270;-86
2023/04/26 16:00:25;;;;;;;3.70;1.10;;;;;;;10.85;44.08;100758.84;107680;1283;59899;-86
2023/04/26 16:04:10;;;;;;;5.30;0.90;;;;;;;10.69;44.12;100757.52;107689;1282;73774;-86
2023/04/26 16:07:58;;;;;;;2.20;0.90;;;;;;;10.61;44.15;100765.04;107691;1283;68657;-86
2023/04/26 16:11:45;;;;;;;3.50;1.00;;;;;;;10.56;43.96;100762.36;108357;1276;71413;-86
2023/04/26 16:18:28;;;;;;;4.30;1.60;;;;;;;10.46;44.03;100763.35;108892;1267;60729;-86
2023/04/26 16:22:15;;;;;;;4.00;1.10;;;;;;;10.42;44.08;100764.27;108923;1268;74189;-86
2023/04/26 16:26:01;;;;;;;3.10;0.70;;;;;;;10.41;44.05;100764.45;108932;1269;68374;-86
2023/04/26 16:32:25;;;;;;;3.20;1.00;;;;;;;10.41;44.08;100766.35;108889;1266;59008;-87
2023/04/26 16:36:12;;;;;;;3.10;1.00;;;;;;;10.41;43.93;100766.69;108898;1266;59314;-87
2023/04/26 18:24:07;;;;;;;3.30;2.20;;;;;;;9.48;44.87;100853.95;108935;1267;74335;-89
2023/04/26 18:27:24;;;;;;;5.10;1.70;;;;;;;9.37;44.81;100855.58;108888;1267;67622;-88
2023/04/26 18:36:21;;;;;;;15.10;4.70;;;;;;;8.96;45.01;100865.83;108930;1267;59273;-88
2023/04/26 18:40:08;;;;;;;13.40;4.80;;;;;;;8.80;45.10;100863.70;108911;1270;72315;-86
2023/04/26 18:43:55;;;;;;;10.80;4.60;;;;;;;8.65;45.14;100868.75;108403;1274;67277;-87
2023/04/26 18:47:42;;;;;;;13.00;4.40;;;;;;;8.52;45.14;100869.48;108393;1276;72406;-87
2023/04/26 18:51:30;;;;;;;13.50;3.80;;;;;;;8.41;45.29;100870.89;108444;1274;59011;-87
2023/04/26 18:55:17;;;;;;;13.00;3.70;;;;;;;8.29;45.28;100876.59;108445;1274;58976;-87
2023/04/26 18:59:05;;;;;;;12.00;4.00;;;;;;;8.18;45.42;100882.11;107759;1281;72351;-87
2023/04/26 19:02:52;;;;;;;13.20;4.30;;;;;;;8.11;45.46;100890.70;107817;1281;68363;-88
2023/04/26 19:06:38;;;;;;;13.10;4.80;;;;;;;8.05;45.55;100888.31;107797;1283;71002;-87
2023/04/26 19:10:25;;;;;;;11.10;3.80;;;;;;;7.99;45.60;100887.11;107758;1285;58774;-87
2023/04/26 19:14:12;;;;;;;11.60;3.80;;;;;;;7.90;45.63;100890.20;107110;1289;59256;-87
2023/04/26 19:17:59;;;;;;;8.40;4.00;;;;;;;7.81;45.67;100893.30;107125;1289;74320;-87
2023/04/26 19:21:50;;;;;;;5.90;2.70;;;;;;;7.74;45.70;100892.30;107766;1283;68495;-87
2023/04/26 19:25:36;;;;;;;4.50;2.30;;;;;;;7.67;45.76;100902.77;107498;1279;313604;-87
2023/04/26 19:29:23;;;;;;;4.40;2.40;;;;;;;7.57;45.84;100904.30;108010;1284;59175;-87
2023/04/26 19:33:10;;;;;;;7.60;2.70;;;;;;;7.47;46.00;100905.33;108000;1282;60230;-86
2023/04/26 19:36:57;;;;;;;9.10;3.70;;;;;;;7.35;46.04;100904.11;108621;1274;73962;-87
2023/04/26 19:40:45;;;;;;;5.50;3.50;;;;;;;7.27;46.10;100901.01;108615;1273;68128;-88
2023/04/26 19:49:27;;;;;;;6.50;4.80;;;;;;;7.07;46.27;100904.58;109245;1264;58867;-84
2023/04/26 21:03:07;;;;;;;6.60;3.90;;;;;;;5.77;48.12;100921.30;109183;1264;72455;-87
